sensor_id;sensor_type;location;lat;lon;timestamp;temperature;humidity
39503;DHT22;26970;49.900;10.774;2024-02-14T00:02:35;2.10;99.90
39503;DHT22;26970;49.900;10.774;2024-02-14T00:05:01;2.10;99.90
39503;DHT22;26970;49.900;10.774;2024-02-14T00:07:28;2.10;99.90
39503;DHT22;26970;49.900;10.774;2024-02-14T00:09:54;2.10;99.90
39503;DHT22;26970;49.900;10.774;2024-02-14T00:12:19;2.10;99.90
39503;DHT22;26970;49.900;10.774;2024-02-14T00:14:45;2.10;99.90
39503;DHT22;26970;49.900;10.774;2024-02-14T00:17:10;2.10;99.90
39503;DHT22;26970;49.900;10.774;2024-02-14T00:19:36;2.20;99.90
39503;DHT22;26970;49.900;10.774;2024-02-14T00:22:02;2.10;99.90
39503;DHT22;26970;49.900;10.774;2024-02-14T00:24:27;2.20;99.90
39503;DHT22;26970;49.900;10.774;2024-02-14T00:26:55;2.20;99.90
39503;DHT22;26970;49.900;10.774;2024-02-14T00:29:22;2.20;99.90
39503;DHT22;26970;49.900;10.774;2024-02-14T00:31:48;2.20;99.90
39503;DHT22;26970;49.900;10.774;2024-02-14T00:34:13;2.20;99.90
39503;DHT22;26970;49.900;10.774;2024-02-14T00:36:39;2.30;99.90
39503;DHT22;26970;49.900;10.774;2024-02-14T00:39:04;2.30;99.90
39503;DHT22;26970;49.900;10.774;2024-02-14T00:41:30;2.30;99.90
39503;DHT22;26970;49.900;10.774;2024-02-14T00:43:56;2.30;99.90
39503;DHT22;26970;49.900;10.774;2024-02-14T00:46:22;2.30;99.90
39503;DHT22;26970;49.900;10.774;2024-02-14T00:48:47;2.40;99.90
39503;DHT22;26970;49.900;10.774;2024-02-14T00:51:13;2.40;99.90
39503;DHT22;26970;49.900;10.774;2024-02-14T00:53:38;2.40;99.90
39503;DHT22;26970;49.900;10.774;2024-02-14T00:56:04;2.40;99.90
39503;DHT22;26970;49.900;10.774;2024-02-14T00:58:30;2.40;99.90
39503;DHT22;26970;49.900;10.774;2024-02-14T01:00:55;2.50;99.90
39503;DHT22;26970;49.900;10.774;2024-02-14T01:03:21;2.40;99.90
39503;DHT22;26970;49.900;10.774;2024-02-14T01:05:47;2.40;99.90
39503;DHT22;26970;49.900;10.774;2024-02-14T01:08:13;2.40;99.90
39503;DHT22;26970;49.900;10.774;2024-02-14T01:10:40;2.40;99.90
39503;DHT22;26970;49.900;10.774;2024-02-14T01:13:05;2.40;99.90
39503;DHT22;26970;49.900;10.774;2024-02-14T01:15:31;2.40;99.90
39503;DHT22;26970;49.900;10.774;2024-02-14T01:17:57;2.30;99.90
39503;DHT22;26970;49.900;10.774;2024-02-14T01:20:23;2.40;99.90
39503;DHT22;26970;49.900;10.774;2024-02-14T01:22:48;2.40;99.90
39503;DHT22;26970;49.900;10.774;2024-02-14T01:25:14;2.40;99.90
39503;DHT22;26970;49.900;10.774;2024-02-14T01:27:40;2.40;99.90
39503;DHT22;26970;49.900;10.774;2024-02-14T01:30:07;2.40;99.90
39503;DHT22;26970;49.900;10.774;2024-02-14T01:32:32;2.40;99.90
39503;DHT22;26970;49.900;10.774;2024-02-14T01:34:58;2.50;99.90
39503;DHT22;26970;49.900;10.774;2024-02-14T01:37:25;2.40;99.90
39503;DHT22;26970;49.900;10.774;2024-02-14T01:39:50;2.40;99.90
39503;DHT22;26970;49.900;10.774;2024-02-14T01:42:16;2.50;99.90
39503;DHT22;26970;49.900;10.774;2024-02-14T01:44:41;2.40;99.90
39503;DHT22;26970;49.900;10.774;2024-02-14T01:47:09;2.50;99.90
39503;DHT22;26970;49.900;10.774;2024-02-14T01:49:35;2.50;99.90
39503;DHT22;26970;49.900;10.774;2024-02-14T01:52:03;2.50;99.90
39503;DHT22;26970;49.900;10.774;2024-02-14T01:54:29;2.60;99.90
39503;DHT22;26970;49.900;10.774;2024-02-14T01:56:56;2.60;99.90
39503;DHT22;26970;49.900;10.774;2024-02-14T01:59:24;2.60;99.90
39503;DHT22;26970;49.900;10.774;2024-02-14T02:01:50;2.60;99.90
39503;DHT22;26970;49.900;10.774;2024-02-14T02:04:17;2.60;99.90
39503;DHT22;26970;49.900;10.774;2024-02-14T02:06:43;2.60;99.90
39503;DHT22;26970;49.900;10.774;2024-02-14T02:09:09;2.60;99.90
39503;DHT22;26970;49.900;10.774;2024-02-14T02:11:51;2.60;99.90
39503;DHT22;26970;49.900;10.774;2024-02-14T02:14:19;2.60;99.90
39503;DHT22;26970;49.900;10.774;2024-02-14T02:16:45;2.60;99.90
39503;DHT22;26970;49.900;10.774;2024-02-14T02:19:11;2.60;99.90
39503;DHT22;26970;49.900;10.774;2024-02-14T02:21:37;2.60;99.90
39503;DHT22;26970;49.900;10.774;2024-02-14T02:24:03;2.60;99.90
39503;DHT22;26970;49.900;10.774;2024-02-14T02:26:29;2.60;99.90
39503;DHT22;26970;49.900;10.774;2024-02-14T02:28:55;2.60;99.90
39503;DHT22;26970;49.900;10.774;2024-02-14T02:31:20;2.50;99.90
39503;DHT22;26970;49.900;10.774;2024-02-14T02:33:46;2.60;99.90
39503;DHT22;26970;49.900;10.774;2024-02-14T02:36:12;2.50;99.90
39503;DHT22;26970;49.900;10.774;2024-02-14T02:38:38;2.50;99.90
39503;DHT22;26970;49.900;10.774;2024-02-14T02:41:04;2.50;99.90
39503;DHT22;26970;49.900;10.774;2024-02-14T02:43:33;2.60;99.90
39503;DHT22;26970;49.900;10.774;2024-02-14T02:45:59;2.60;99.90
39503;DHT22;26970;49.900;10.774;2024-02-14T02:48:25;2.60;99.90
39503;DHT22;26970;49.900;10.774;2024-02-14T02:50:51;2.60;99.90
39503;DHT22;26970;49.900;10.774;2024-02-14T02:53:17;2.60;99.90
39503;DHT22;26970;49.900;10.774;2024-02-14T02:55:43;2.70;99.90
39503;DHT22;26970;49.900;10.774;2024-02-14T02:58:09;2.70;99.90
39503;DHT22;26970;49.900;10.774;2024-02-14T03:00:35;2.70;99.90
39503;DHT22;26970;49.900;10.774;2024-02-14T03:03:01;2.80;99.90
39503;DHT22;26970;49.900;10.774;2024-02-14T03:05:29;2.70;99.90
39503;DHT22;26970;49.900;10.774;2024-02-14T03:07:58;2.70;99.90
39503;DHT22;26970;49.900;10.774;2024-02-14T03:10:24;2.60;99.90
39503;DHT22;26970;49.900;10.774;2024-02-14T03:12:51;2.70;99.90
39503;DHT22;26970;49.900;10.774;2024-02-14T03:15:17;2.70;99.90
39503;DHT22;26970;49.900;10.774;2024-02-14T03:17:44;2.70;99.90
39503;DHT22;26970;49.900;10.774;2024-02-14T03:20:10;2.70;99.90
39503;DHT22;26970;49.900;10.774;2024-02-14T03:22:39;2.70;99.90
39503;DHT22;26970;49.900;10.774;2024-02-14T03:25:19;2.80;99.90
39503;DHT22;26970;49.900;10.774;2024-02-14T03:27:45;2.80;99.90
39503;DHT22;26970;49.900;10.774;2024-02-14T03:30:12;2.80;99.90
39503;DHT22;26970;49.900;10.774;2024-02-14T03:32:38;2.80;99.90
39503;DHT22;26970;49.900;10.774;2024-02-14T03:35:04;2.80;99.90
39503;DHT22;26970;49.900;10.774;2024-02-14T03:37:31;2.80;99.90
39503;DHT22;26970;49.900;10.774;2024-02-14T03:39:57;2.80;99.90
39503;DHT22;26970;49.900;10.774;2024-02-14T03:42:22;2.80;99.90
39503;DHT22;26970;49.900;10.774;2024-02-14T03:44:48;2.80;99.90
39503;DHT22;26970;49.900;10.774;2024-02-14T03:47:13;2.80;99.90
39503;DHT22;26970;49.900;10.774;2024-02-14T03:49:39;2.80;99.90
39503;DHT22;26970;49.900;10.774;2024-02-14T03:52:06;2.80;99.90
39503;DHT22;26970;49.900;10.774;2024-02-14T03:54:35;2.80;99.90
39503;DHT22;26970;49.900;10.774;2024-02-14T03:57:01;2.80;99.90
39503;DHT22;26970;49.900;10.774;2024-02-14T03:59:27;2.90;99.90
39503;DHT22;26970;49.900;10.774;2024-02-14T04:01:52;2.80;99.90
39503;DHT22;26970;49.900;10.774;2024-02-14T04:04:18;2.90;99.90
39503;DHT22;26970;49.900;10.774;2024-02-14T04:06:44;2.90;99.90
39503;DHT22;26970;49.900;10.774;2024-02-14T04:09:11;2.90;99.90
39503;DHT22;26970;49.900;10.774;2024-02-14T04:11:36;2.90;99.90
39503;DHT22;26970;49.900;10.774;2024-02-14T04:14:02;3.00;99.90
39503;DHT22;26970;49.900;10.774;2024-02-14T04:16:27;3.00;99.90
39503;DHT22;26970;49.900;10.774;2024-02-14T04:18:53;3.00;99.90
39503;DHT22;26970;49.900;10.774;2024-02-14T04:21:20;3.00;99.90
39503;DHT22;26970;49.900;10.774;2024-02-14T04:23:46;2.90;99.90
39503;DHT22;26970;49.900;10.774;2024-02-14T04:26:22;2.90;99.90
39503;DHT22;26970;49.900;10.774;2024-02-14T04:28:47;2.90;99.90
39503;DHT22;26970;49.900;10.774;2024-02-14T04:31:13;2.90;99.90
39503;DHT22;26970;49.900;10.774;2024-02-14T04:33:39;2.90;99.90
39503;DHT22;26970;49.900;10.774;2024-02-14T04:36:05;2.90;99.90
39503;DHT22;26970;49.900;10.774;2024-02-14T04:38:31;2.90;99.90
39503;DHT22;26970;49.900;10.774;2024-02-14T04:40:57;2.90;99.90
39503;DHT22;26970;49.900;10.774;2024-02-14T04:43:26;2.90;99.90
39503;DHT22;26970;49.900;10.774;2024-02-14T04:45:52;2.90;99.90
39503;DHT22;26970;49.900;10.774;2024-02-14T04:48:19;3.00;99.90
39503;DHT22;26970;49.900;10.774;2024-02-14T04:50:44;3.00;99.90
39503;DHT22;26970;49.900;10.774;2024-02-14T04:53:10;2.90;99.90
39503;DHT22;26970;49.900;10.774;2024-02-14T04:55:36;2.90;99.90
39503;DHT22;26970;49.900;10.774;2024-02-14T04:58:01;3.00;99.90
39503;DHT22;26970;49.900;10.774;2024-02-14T05:00:27;3.00;99.90
39503;DHT22;26970;49.900;10.774;2024-02-14T05:02:53;3.00;99.90
39503;DHT22;26970;49.900;10.774;2024-02-14T05:05:19;3.00;99.90
39503;DHT22;26970;49.900;10.774;2024-02-14T05:07:45;3.00;99.90
39503;DHT22;26970;49.900;10.774;2024-02-14T05:10:11;3.00;99.90
39503;DHT22;26970;49.900;10.774;2024-02-14T05:12:40;3.00;99.90
39503;DHT22;26970;49.900;10.774;2024-02-14T05:15:06;3.00;99.90
39503;DHT22;26970;49.900;10.774;2024-02-14T05:17:31;3.00;99.90
39503;DHT22;26970;49.900;10.774;2024-02-14T05:19:57;3.10;99.90
39503;DHT22;26970;49.900;10.774;2024-02-14T05:22:23;3.10;99.90
39503;DHT22;26970;49.900;10.774;2024-02-14T05:24:48;3.10;99.90
39503;DHT22;26970;49.900;10.774;2024-02-14T05:27:14;3.10;99.90
39503;DHT22;26970;49.900;10.774;2024-02-14T05:29:39;3.10;99.90
39503;DHT22;26970;49.900;10.774;2024-02-14T05:32:05;3.10;99.90
39503;DHT22;26970;49.900;10.774;2024-02-14T05:34:31;3.10;99.90
39503;DHT22;26970;49.900;10.774;2024-02-14T05:36:56;3.20;99.90
39503;DHT22;26970;49.900;10.774;2024-02-14T05:39:22;3.20;99.90
39503;DHT22;26970;49.900;10.774;2024-02-14T05:41:47;3.20;99.90
39503;DHT22;26970;49.900;10.774;2024-02-14T05:44:14;3.10;99.90
39503;DHT22;26970;49.900;10.774;2024-02-14T05:46:40;3.10;99.90
39503;DHT22;26970;49.900;10.774;2024-02-14T05:49:06;3.10;99.90
39503;DHT22;26970;49.900;10.774;2024-02-14T05:51:32;3.10;99.90
39503;DHT22;26970;49.900;10.774;2024-02-14T05:53:57;3.00;99.90
39503;DHT22;26970;49.900;10.774;2024-02-14T05:56:23;3.00;99.90
39503;DHT22;26970;49.900;10.774;2024-02-14T05:58:49;3.00;99.90
39503;DHT22;26970;49.900;10.774;2024-02-14T06:01:14;3.00;99.90
39503;DHT22;26970;49.900;10.774;2024-02-14T06:03:41;3.10;99.90
39503;DHT22;26970;49.900;10.774;2024-02-14T06:06:08;3.00;99.90
39503;DHT22;26970;49.900;10.774;2024-02-14T06:08:34;3.10;99.90
39503;DHT22;26970;49.900;10.774;2024-02-14T06:10:59;3.00;99.90
39503;DHT22;26970;49.900;10.774;2024-02-14T06:13:25;3.10;99.90
39503;DHT22;26970;49.900;10.774;2024-02-14T06:15:50;3.10;99.90
39503;DHT22;26970;49.900;10.774;2024-02-14T06:18:16;3.10;99.90
39503;DHT22;26970;49.900;10.774;2024-02-14T06:20:41;3.10;99.90
39503;DHT22;26970;49.900;10.774;2024-02-14T06:23:07;3.20;99.90
39503;DHT22;26970;49.900;10.774;2024-02-14T06:25:33;3.20;99.90
39503;DHT22;26970;49.900;10.774;2024-02-14T06:27:59;3.20;99.90
39503;DHT22;26970;49.900;10.774;2024-02-14T06:30:25;3.30;99.90
39503;DHT22;26970;49.900;10.774;2024-02-14T06:32:50;3.30;99.90
39503;DHT22;26970;49.900;10.774;2024-02-14T06:35:16;3.30;99.90
39503;DHT22;26970;49.900;10.774;2024-02-14T06:37:44;3.30;99.90
39503;DHT22;26970;49.900;10.774;2024-02-14T06:40:10;3.40;99.90
39503;DHT22;26970;49.900;10.774;2024-02-14T06:42:36;3.30;99.90
39503;DHT22;26970;49.900;10.774;2024-02-14T06:45:01;3.40;99.90
39503;DHT22;26970;49.900;10.774;2024-02-14T06:47:27;3.40;99.90
39503;DHT22;26970;49.900;10.774;2024-02-14T06:49:55;3.40;99.90
39503;DHT22;26970;49.900;10.774;2024-02-14T06:52:21;3.40;99.90
39503;DHT22;26970;49.900;10.774;2024-02-14T06:54:47;3.40;99.90
39503;DHT22;26970;49.900;10.774;2024-02-14T06:57:13;3.40;99.90
39503;DHT22;26970;49.900;10.774;2024-02-14T06:59:39;3.40;99.90
39503;DHT22;26970;49.900;10.774;2024-02-14T07:02:05;3.40;99.90
39503;DHT22;26970;49.900;10.774;2024-02-14T07:04:31;3.40;99.90
39503;DHT22;26970;49.900;10.774;2024-02-14T07:06:57;3.40;99.90
39503;DHT22;26970;49.900;10.774;2024-02-14T07:09:23;3.50;99.90
39503;DHT22;26970;49.900;10.774;2024-02-14T07:11:50;3.40;99.90
39503;DHT22;26970;49.900;10.774;2024-02-14T07:14:16;3.40;99.90
39503;DHT22;26970;49.900;10.774;2024-02-14T07:16:42;3.40;99.90
39503;DHT22;26970;49.900;10.774;2024-02-14T07:19:07;3.40;99.90
39503;DHT22;26970;49.900;10.774;2024-02-14T07:21:33;3.40;99.90
39503;DHT22;26970;49.900;10.774;2024-02-14T07:23:58;3.50;99.90
39503;DHT22;26970;49.900;10.774;2024-02-14T07:26:24;3.50;99.90
39503;DHT22;26970;49.900;10.774;2024-02-14T07:28:50;3.50;99.90
39503;DHT22;26970;49.900;10.774;2024-02-14T07:31:15;3.50;99.90
39503;DHT22;26970;49.900;10.774;2024-02-14T07:33:41;3.50;99.90
39503;DHT22;26970;49.900;10.774;2024-02-14T07:36:06;3.60;99.90
39503;DHT22;26970;49.900;10.774;2024-02-14T07:38:32;3.60;99.90
39503;DHT22;26970;49.900;10.774;2024-02-14T07:40:57;3.70;99.90
39503;DHT22;26970;49.900;10.774;2024-02-14T07:43:23;3.70;99.90
39503;DHT22;26970;49.900;10.774;2024-02-14T07:45:49;3.70;99.90
39503;DHT22;26970;49.900;10.774;2024-02-14T07:48:14;3.80;99.90
39503;DHT22;26970;49.900;10.774;2024-02-14T07:50:40;3.90;99.90
39503;DHT22;26970;49.900;10.774;2024-02-14T07:53:05;3.90;99.90
39503;DHT22;26970;49.900;10.774;2024-02-14T07:55:31;4.00;99.90
39503;DHT22;26970;49.900;10.774;2024-02-14T07:57:57;4.00;99.90
39503;DHT22;26970;49.900;10.774;2024-02-14T08:00:24;4.00;99.90
39503;DHT22;26970;49.900;10.774;2024-02-14T08:02:50;4.10;99.90
39503;DHT22;26970;49.900;10.774;2024-02-14T08:05:16;4.10;99.90
39503;DHT22;26970;49.900;10.774;2024-02-14T08:07:42;4.10;99.90
39503;DHT22;26970;49.900;10.774;2024-02-14T08:10:08;4.20;99.90
39503;DHT22;26970;49.900;10.774;2024-02-14T08:12:34;4.20;99.90
39503;DHT22;26970;49.900;10.774;2024-02-14T08:14:59;4.30;99.90
39503;DHT22;26970;49.900;10.774;2024-02-14T08:17:29;4.30;99.90
39503;DHT22;26970;49.900;10.774;2024-02-14T08:19:55;4.30;99.90
39503;DHT22;26970;49.900;10.774;2024-02-14T08:22:21;4.30;99.90
39503;DHT22;26970;49.900;10.774;2024-02-14T08:24:46;4.30;99.90
39503;DHT22;26970;49.900;10.774;2024-02-14T08:27:12;4.30;99.90
39503;DHT22;26970;49.900;10.774;2024-02-14T08:29:37;4.30;99.90
39503;DHT22;26970;49.900;10.774;2024-02-14T08:32:03;4.40;99.90
39503;DHT22;26970;49.900;10.774;2024-02-14T08:34:30;4.40;99.90
39503;DHT22;26970;49.900;10.774;2024-02-14T08:36:55;4.50;99.90
39503;DHT22;26970;49.900;10.774;2024-02-14T08:39:21;4.50;99.90
39503;DHT22;26970;49.900;10.774;2024-02-14T08:41:47;4.50;99.90
39503;DHT22;26970;49.900;10.774;2024-02-14T08:44:13;4.60;99.90
39503;DHT22;26970;49.900;10.774;2024-02-14T08:46:39;4.60;99.90
39503;DHT22;26970;49.900;10.774;2024-02-14T08:49:07;4.70;99.90
39503;DHT22;26970;49.900;10.774;2024-02-14T08:51:37;4.70;99.90
39503;DHT22;26970;49.900;10.774;2024-02-14T08:54:06;4.70;99.90
39503;DHT22;26970;49.900;10.774;2024-02-14T08:56:32;4.70;99.90
39503;DHT22;26970;49.900;10.774;2024-02-14T08:59:02;4.70;99.90
39503;DHT22;26970;49.900;10.774;2024-02-14T09:01:28;4.80;99.90
39503;DHT22;26970;49.900;10.774;2024-02-14T09:03:54;4.80;99.90
39503;DHT22;26970;49.900;10.774;2024-02-14T09:06:19;4.90;99.90
39503;DHT22;26970;49.900;10.774;2024-02-14T09:08:45;4.90;99.90
39503;DHT22;26970;49.900;10.774;2024-02-14T09:11:11;4.90;99.90
39503;DHT22;26970;49.900;10.774;2024-02-14T09:13:37;4.90;99.90
39503;DHT22;26970;49.900;10.774;2024-02-14T09:16:03;4.90;99.90
39503;DHT22;26970;49.900;10.774;2024-02-14T09:18:31;5.00;99.90
39503;DHT22;26970;49.900;10.774;2024-02-14T09:20:57;5.00;99.90
39503;DHT22;26970;49.900;10.774;2024-02-14T09:23:22;5.00;99.90
39503;DHT22;26970;49.900;10.774;2024-02-14T09:25:49;5.10;99.90
39503;DHT22;26970;49.900;10.774;2024-02-14T09:28:18;5.20;99.90
39503;DHT22;26970;49.900;10.774;2024-02-14T09:30:44;5.20;99.90
39503;DHT22;26970;49.900;10.774;2024-02-14T09:33:11;5.20;99.90
39503;DHT22;26970;49.900;10.774;2024-02-14T09:35:38;5.30;99.90
39503;DHT22;26970;49.900;10.774;2024-02-14T09:38:10;5.40;99.90
39503;DHT22;26970;49.900;10.774;2024-02-14T09:40:35;5.40;99.90
39503;DHT22;26970;49.900;10.774;2024-02-14T09:43:04;5.40;99.90
39503;DHT22;26970;49.900;10.774;2024-02-14T09:45:31;5.50;99.90
39503;DHT22;26970;49.900;10.774;2024-02-14T09:47:59;5.60;99.90
39503;DHT22;26970;49.900;10.774;2024-02-14T09:50:26;5.70;99.90
39503;DHT22;26970;49.900;10.774;2024-02-14T09:52:56;5.70;99.90
39503;DHT22;26970;49.900;10.774;2024-02-14T09:55:23;5.80;99.90
39503;DHT22;26970;49.900;10.774;2024-02-14T09:57:50;5.90;99.90
39503;DHT22;26970;49.900;10.774;2024-02-14T10:00:16;5.90;99.90
39503;DHT22;26970;49.900;10.774;2024-02-14T10:02:41;5.90;99.90
39503;DHT22;26970;49.900;10.774;2024-02-14T10:05:07;5.90;99.90
39503;DHT22;26970;49.900;10.774;2024-02-14T10:07:43;6.00;99.90
39503;DHT22;26970;49.900;10.774;2024-02-14T10:10:10;6.00;99.90
39503;DHT22;26970;49.900;10.774;2024-02-14T10:12:36;6.00;99.90
39503;DHT22;26970;49.900;10.774;2024-02-14T10:15:02;6.10;99.90
39503;DHT22;26970;49.900;10.774;2024-02-14T10:17:28;6.20;99.90
39503;DHT22;26970;49.900;10.774;2024-02-14T10:20:01;6.20;99.90
39503;DHT22;26970;49.900;10.774;2024-02-14T10:22:37;6.30;99.90
39503;DHT22;26970;49.900;10.774;2024-02-14T10:25:05;6.40;99.90
39503;DHT22;26970;49.900;10.774;2024-02-14T10:27:40;6.50;99.90
39503;DHT22;26970;49.900;10.774;2024-02-14T10:30:07;6.50;99.90
39503;DHT22;26970;49.900;10.774;2024-02-14T10:32:36;6.60;99.90
39503;DHT22;26970;49.900;10.774;2024-02-14T10:35:04;6.60;99.90
39503;DHT22;26970;49.900;10.774;2024-02-14T10:37:34;6.60;99.90
39503;DHT22;26970;49.900;10.774;2024-02-14T10:40:01;6.60;99.90
39503;DHT22;26970;49.900;10.774;2024-02-14T10:42:27;6.60;99.90
39503;DHT22;26970;49.900;10.774;2024-02-14T10:44:54;6.60;99.90
39503;DHT22;26970;49.900;10.774;2024-02-14T10:47:20;6.70;99.90
39503;DHT22;26970;49.900;10.774;2024-02-14T10:49:48;6.60;99.90
39503;DHT22;26970;49.900;10.774;2024-02-14T10:52:17;6.70;99.90
39503;DHT22;26970;49.900;10.774;2024-02-14T10:54:50;6.70;99.90
39503;DHT22;26970;49.900;10.774;2024-02-14T10:57:17;6.80;99.90
39503;DHT22;26970;49.900;10.774;2024-02-14T10:59:46;6.90;99.90
39503;DHT22;26970;49.900;10.774;2024-02-14T11:02:14;7.00;99.90
39503;DHT22;26970;49.900;10.774;2024-02-14T11:04:40;7.00;99.90
39503;DHT22;26970;49.900;10.774;2024-02-14T11:07:09;7.00;99.90
39503;DHT22;26970;49.900;10.774;2024-02-14T11:09:38;7.10;99.90
39503;DHT22;26970;49.900;10.774;2024-02-14T11:12:10;7.20;99.90
39503;DHT22;26970;49.900;10.774;2024-02-14T11:14:36;7.30;99.90
39503;DHT22;26970;49.900;10.774;2024-02-14T11:17:04;7.40;99.90
39503;DHT22;26970;49.900;10.774;2024-02-14T11:19:34;7.50;99.90
39503;DHT22;26970;49.900;10.774;2024-02-14T11:22:11;7.60;99.90
39503;DHT22;26970;49.900;10.774;2024-02-14T11:24:38;7.70;99.90
39503;DHT22;26970;49.900;10.774;2024-02-14T11:27:12;7.80;99.90
39503;DHT22;26970;49.900;10.774;2024-02-14T11:29:51;7.90;99.90
39503;DHT22;26970;49.900;10.774;2024-02-14T11:32:17;8.10;99.90
39503;DHT22;26970;49.900;10.774;2024-02-14T11:34:44;8.00;99.90
39503;DHT22;26970;49.900;10.774;2024-02-14T11:37:26;8.00;99.90
39503;DHT22;26970;49.900;10.774;2024-02-14T11:39:52;8.20;99.90
39503;DHT22;26970;49.900;10.774;2024-02-14T11:42:17;8.30;99.90
39503;DHT22;26970;49.900;10.774;2024-02-14T11:44:46;8.30;99.90
39503;DHT22;26970;49.900;10.774;2024-02-14T11:47:11;8.40;99.90
39503;DHT22;26970;49.900;10.774;2024-02-14T11:49:37;8.50;99.90
39503;DHT22;26970;49.900;10.774;2024-02-14T11:52:04;8.50;99.90
39503;DHT22;26970;49.900;10.774;2024-02-14T11:54:30;8.50;99.90
39503;DHT22;26970;49.900;10.774;2024-02-14T11:56:55;8.50;99.90
39503;DHT22;26970;49.900;10.774;2024-02-14T11:59:22;8.50;99.90
39503;DHT22;26970;49.900;10.774;2024-02-14T12:01:48;8.80;99.90
39503;DHT22;26970;49.900;10.774;2024-02-14T12:04:17;8.70;99.90
39503;DHT22;26970;49.900;10.774;2024-02-14T12:06:43;8.60;99.90
39503;DHT22;26970;49.900;10.774;2024-02-14T12:09:09;8.70;99.90
39503;DHT22;26970;49.900;10.774;2024-02-14T12:11:39;8.60;99.90
39503;DHT22;26970;49.900;10.774;2024-02-14T12:14:08;8.60;99.90
39503;DHT22;26970;49.900;10.774;2024-02-14T12:16:35;8.60;99.90
39503;DHT22;26970;49.900;10.774;2024-02-14T12:19:13;8.70;99.90
39503;DHT22;26970;49.900;10.774;2024-02-14T12:21:41;8.60;99.90
39503;DHT22;26970;49.900;10.774;2024-02-14T12:24:10;8.60;99.90
39503;DHT22;26970;49.900;10.774;2024-02-14T12:26:37;8.50;99.90
39503;DHT22;26970;49.900;10.774;2024-02-14T12:29:06;8.40;99.90
39503;DHT22;26970;49.900;10.774;2024-02-14T12:31:33;8.40;99.90
39503;DHT22;26970;49.900;10.774;2024-02-14T12:33:59;8.30;99.90
39503;DHT22;26970;49.900;10.774;2024-02-14T12:36:27;8.40;99.90
39503;DHT22;26970;49.900;10.774;2024-02-14T12:38:54;8.40;99.90
39503;DHT22;26970;49.900;10.774;2024-02-14T12:41:20;8.40;99.90
39503;DHT22;26970;49.900;10.774;2024-02-14T12:43:45;8.40;99.90
39503;DHT22;26970;49.900;10.774;2024-02-14T12:46:11;8.50;99.90
39503;DHT22;26970;49.900;10.774;2024-02-14T12:48:36;8.50;99.90
39503;DHT22;26970;49.900;10.774;2024-02-14T12:51:02;8.60;99.90
39503;DHT22;26970;49.900;10.774;2024-02-14T12:53:28;8.70;99.90
39503;DHT22;26970;49.900;10.774;2024-02-14T12:55:53;8.70;99.90
39503;DHT22;26970;49.900;10.774;2024-02-14T12:58:19;8.80;99.90
39503;DHT22;26970;49.900;10.774;2024-02-14T13:00:44;8.80;99.90
39503;DHT22;26970;49.900;10.774;2024-02-14T13:03:11;8.80;99.90
39503;DHT22;26970;49.900;10.774;2024-02-14T13:05:37;8.90;99.90
39503;DHT22;26970;49.900;10.774;2024-02-14T13:08:03;9.00;99.90
39503;DHT22;26970;49.900;10.774;2024-02-14T13:10:28;9.10;99.90
39503;DHT22;26970;49.900;10.774;2024-02-14T13:12:56;9.10;99.90
39503;DHT22;26970;49.900;10.774;2024-02-14T13:15:22;9.20;99.90
39503;DHT22;26970;49.900;10.774;2024-02-14T13:17:48;9.30;99.90
39503;DHT22;26970;49.900;10.774;2024-02-14T13:20:14;9.40;99.90
39503;DHT22;26970;49.900;10.774;2024-02-14T13:22:41;9.50;99.90
39503;DHT22;26970;49.900;10.774;2024-02-14T13:25:08;9.60;99.90
39503;DHT22;26970;49.900;10.774;2024-02-14T13:27:34;9.50;99.90
39503;DHT22;26970;49.900;10.774;2024-02-14T13:30:01;9.50;99.90
39503;DHT22;26970;49.900;10.774;2024-02-14T13:32:27;9.40;99.90
39503;DHT22;26970;49.900;10.774;2024-02-14T13:34:52;9.40;99.90
39503;DHT22;26970;49.900;10.774;2024-02-14T13:37:18;9.40;99.90
39503;DHT22;26970;49.900;10.774;2024-02-14T13:39:44;9.30;99.90
39503;DHT22;26970;49.900;10.774;2024-02-14T13:42:10;9.20;99.90
39503;DHT22;26970;49.900;10.774;2024-02-14T13:44:36;9.10;99.90
39503;DHT22;26970;49.900;10.774;2024-02-14T13:47:02;9.00;99.90
39503;DHT22;26970;49.900;10.774;2024-02-14T13:49:28;8.80;99.90
39503;DHT22;26970;49.900;10.774;2024-02-14T13:51:54;8.80;99.90
39503;DHT22;26970;49.900;10.774;2024-02-14T13:54:20;8.70;99.90
39503;DHT22;26970;49.900;10.774;2024-02-14T13:56:47;8.80;99.90
39503;DHT22;26970;49.900;10.774;2024-02-14T13:59:16;8.70;99.90
39503;DHT22;26970;49.900;10.774;2024-02-14T14:01:42;8.70;99.90
39503;DHT22;26970;49.900;10.774;2024-02-14T14:04:08;8.60;99.90
39503;DHT22;26970;49.900;10.774;2024-02-14T14:06:33;8.60;99.90
39503;DHT22;26970;49.900;10.774;2024-02-14T14:09:00;8.70;99.90
39503;DHT22;26970;49.900;10.774;2024-02-14T14:11:26;8.60;99.90
39503;DHT22;26970;49.900;10.774;2024-02-14T14:13:52;8.60;99.90
39503;DHT22;26970;49.900;10.774;2024-02-14T14:16:17;8.60;99.90
39503;DHT22;26970;49.900;10.774;2024-02-14T14:18:43;8.60;99.90
39503;DHT22;26970;49.900;10.774;2024-02-14T14:21:08;8.60;99.90
39503;DHT22;26970;49.900;10.774;2024-02-14T14:23:34;8.60;99.90
39503;DHT22;26970;49.900;10.774;2024-02-14T14:26:00;8.60;99.90
39503;DHT22;26970;49.900;10.774;2024-02-14T14:28:26;8.60;99.90
39503;DHT22;26970;49.900;10.774;2024-02-14T14:30:56;8.50;99.90
39503;DHT22;26970;49.900;10.774;2024-02-14T14:33:22;8.60;99.90
39503;DHT22;26970;49.900;10.774;2024-02-14T14:35:48;8.60;99.90
39503;DHT22;26970;49.900;10.774;2024-02-14T14:38:19;8.60;99.90
39503;DHT22;26970;49.900;10.774;2024-02-14T14:40:45;8.70;99.90
39503;DHT22;26970;49.900;10.774;2024-02-14T14:43:14;8.70;99.90
39503;DHT22;26970;49.900;10.774;2024-02-14T14:45:40;8.70;99.90
39503;DHT22;26970;49.900;10.774;2024-02-14T14:48:07;8.70;99.90
39503;DHT22;26970;49.900;10.774;2024-02-14T14:50:34;8.70;99.90
39503;DHT22;26970;49.900;10.774;2024-02-14T14:53:00;8.70;99.90
39503;DHT22;26970;49.900;10.774;2024-02-14T14:55:39;8.70;99.90
39503;DHT22;26970;49.900;10.774;2024-02-14T14:58:13;8.70;99.90
39503;DHT22;26970;49.900;10.774;2024-02-14T15:00:39;8.70;99.90
39503;DHT22;26970;49.900;10.774;2024-02-14T15:03:05;8.70;99.90
39503;DHT22;26970;49.900;10.774;2024-02-14T15:05:30;8.70;99.90
39503;DHT22;26970;49.900;10.774;2024-02-14T15:07:57;8.70;99.90
39503;DHT22;26970;49.900;10.774;2024-02-14T15:10:22;8.60;99.90
39503;DHT22;26970;49.900;10.774;2024-02-14T15:12:48;8.60;99.90
39503;DHT22;26970;49.900;10.774;2024-02-14T15:15:14;8.60;99.90
39503;DHT22;26970;49.900;10.774;2024-02-14T15:17:39;8.60;99.90
39503;DHT22;26970;49.900;10.774;2024-02-14T15:20:06;8.60;99.90
39503;DHT22;26970;49.900;10.774;2024-02-14T15:22:32;8.50;99.90
39503;DHT22;26970;49.900;10.774;2024-02-14T15:24:57;8.50;99.90
39503;DHT22;26970;49.900;10.774;2024-02-14T15:27:23;8.50;99.90